sensor_id;sensor_type;location;lat;lon;timestamp;temperature;humidity
9103;DHT22;4587;51.434;6.788;2023-08-07T00:01:46;14.30;99.90
9103;DHT22;4587;51.434;6.788;2023-08-07T00:04:12;14.30;99.90
9103;DHT22;4587;51.434;6.788;2023-08-07T00:06:38;14.30;99.90
9103;DHT22;4587;51.434;6.788;2023-08-07T00:09:03;14.30;99.90
9103;DHT22;4587;51.434;6.788;2023-08-07T00:11:29;14.30;99.90
9103;DHT22;4587;51.434;6.788;2023-08-07T00:13:55;14.30;99.90
9103;DHT22;4587;51.434;6.788;2023-08-07T00:16:20;14.30;99.90
9103;DHT22;4587;51.434;6.788;2023-08-07T00:18:46;14.20;99.90
9103;DHT22;4587;51.434;6.788;2023-08-07T00:21:12;14.20;99.90
9103;DHT22;4587;51.434;6.788;2023-08-07T00:23:37;14.20;99.90
9103;DHT22;4587;51.434;6.788;2023-08-07T00:26:03;14.20;99.90
9103;DHT22;4587;51.434;6.788;2023-08-07T00:28:28;14.20;99.90
9103;DHT22;4587;51.434;6.788;2023-08-07T00:30:55;14.30;99.90
9103;DHT22;4587;51.434;6.788;2023-08-07T00:33:20;14.30;99.90
9103;DHT22;4587;51.434;6.788;2023-08-07T00:35:46;14.30;99.90
9103;DHT22;4587;51.434;6.788;2023-08-07T00:38:12;14.30;99.90
9103;DHT22;4587;51.434;6.788;2023-08-07T00:40:40;14.30;99.90
9103;DHT22;4587;51.434;6.788;2023-08-07T00:43:07;14.30;99.90
9103;DHT22;4587;51.434;6.788;2023-08-07T00:45:38;14.40;99.90
9103;DHT22;4587;51.434;6.788;2023-08-07T00:48:06;14.40;99.90
9103;DHT22;4587;51.434;6.788;2023-08-07T00:50:32;14.40;99.90
9103;DHT22;4587;51.434;6.788;2023-08-07T00:52:59;14.40;99.90
9103;DHT22;4587;51.434;6.788;2023-08-07T00:55:25;14.40;99.90
9103;DHT22;4587;51.434;6.788;2023-08-07T00:57:51;14.30;99.90
9103;DHT22;4587;51.434;6.788;2023-08-07T01:00:17;14.30;99.90
9103;DHT22;4587;51.434;6.788;2023-08-07T01:02:43;14.30;99.90
9103;DHT22;4587;51.434;6.788;2023-08-07T01:05:09;14.20;99.90
9103;DHT22;4587;51.434;6.788;2023-08-07T01:07:34;14.20;99.90
9103;DHT22;4587;51.434;6.788;2023-08-07T01:10:00;14.20;99.90
9103;DHT22;4587;51.434;6.788;2023-08-07T01:12:38;14.20;99.90
9103;DHT22;4587;51.434;6.788;2023-08-07T01:15:20;14.20;99.90
9103;DHT22;4587;51.434;6.788;2023-08-07T01:17:48;14.20;99.90
9103;DHT22;4587;51.434;6.788;2023-08-07T01:20:15;14.20;99.90
9103;DHT22;4587;51.434;6.788;2023-08-07T01:22:40;14.20;99.90
9103;DHT22;4587;51.434;6.788;2023-08-07T01:25:06;14.20;99.90
9103;DHT22;4587;51.434;6.788;2023-08-07T01:27:46;14.20;99.90
9103;DHT22;4587;51.434;6.788;2023-08-07T01:30:25;14.20;99.90
9103;DHT22;4587;51.434;6.788;2023-08-07T01:35:41;14.20;99.90
9103;DHT22;4587;51.434;6.788;2023-08-07T01:38:08;14.20;99.90
9103;DHT22;4587;51.434;6.788;2023-08-07T01:40:34;14.20;99.90
9103;DHT22;4587;51.434;6.788;2023-08-07T01:43:01;14.20;99.90
9103;DHT22;4587;51.434;6.788;2023-08-07T01:45:28;14.20;99.90
9103;DHT22;4587;51.434;6.788;2023-08-07T01:47:54;14.10;99.90
9103;DHT22;4587;51.434;6.788;2023-08-07T01:50:20;14.10;99.90
9103;DHT22;4587;51.434;6.788;2023-08-07T01:52:47;14.10;99.90
9103;DHT22;4587;51.434;6.788;2023-08-07T01:55:16;14.10;99.90
9103;DHT22;4587;51.434;6.788;2023-08-07T01:57:42;14.10;99.90
9103;DHT22;4587;51.434;6.788;2023-08-07T02:00:08;14.10;99.90
9103;DHT22;4587;51.434;6.788;2023-08-07T02:02:34;14.10;99.90
9103;DHT22;4587;51.434;6.788;2023-08-07T02:05:00;14.10;99.90
9103;DHT22;4587;51.434;6.788;2023-08-07T02:07:26;14.00;99.90
9103;DHT22;4587;51.434;6.788;2023-08-07T02:09:51;14.00;99.90
9103;DHT22;4587;51.434;6.788;2023-08-07T02:12:17;14.10;99.90
9103;DHT22;4587;51.434;6.788;2023-08-07T02:14:42;14.10;99.90
9103;DHT22;4587;51.434;6.788;2023-08-07T02:17:08;14.10;99.90
9103;DHT22;4587;51.434;6.788;2023-08-07T02:19:33;14.10;99.90
9103;DHT22;4587;51.434;6.788;2023-08-07T02:21:59;14.00;99.90
9103;DHT22;4587;51.434;6.788;2023-08-07T02:24:25;14.00;99.90
9103;DHT22;4587;51.434;6.788;2023-08-07T02:26:50;14.00;99.90
9103;DHT22;4587;51.434;6.788;2023-08-07T02:29:16;14.00;99.90
9103;DHT22;4587;51.434;6.788;2023-08-07T02:31:41;14.00;99.90
9103;DHT22;4587;51.434;6.788;2023-08-07T02:34:07;13.90;99.90
9103;DHT22;4587;51.434;6.788;2023-08-07T02:36:32;13.90;99.90
9103;DHT22;4587;51.434;6.788;2023-08-07T02:38:58;13.90;99.90
9103;DHT22;4587;51.434;6.788;2023-08-07T02:41:23;13.90;99.90
9103;DHT22;4587;51.434;6.788;2023-08-07T02:43:49;13.90;99.90
9103;DHT22;4587;51.434;6.788;2023-08-07T02:46:14;13.90;99.90
9103;DHT22;4587;51.434;6.788;2023-08-07T02:48:40;13.80;99.90
9103;DHT22;4587;51.434;6.788;2023-08-07T02:51:06;13.90;99.90
9103;DHT22;4587;51.434;6.788;2023-08-07T02:53:31;13.80;99.90
9103;DHT22;4587;51.434;6.788;2023-08-07T02:55:57;13.80;99.90
9103;DHT22;4587;51.434;6.788;2023-08-07T02:58:28;13.80;99.90
9103;DHT22;4587;51.434;6.788;2023-08-07T03:01:06;13.80;99.90
9103;DHT22;4587;51.434;6.788;2023-08-07T03:03:32;13.80;99.90
9103;DHT22;4587;51.434;6.788;2023-08-07T03:05:57;13.80;99.90
9103;DHT22;4587;51.434;6.788;2023-08-07T03:08:23;13.80;99.90
9103;DHT22;4587;51.434;6.788;2023-08-07T03:10:56;13.80;99.90
9103;DHT22;4587;51.434;6.788;2023-08-07T03:13:23;13.80;99.90
9103;DHT22;4587;51.434;6.788;2023-08-07T03:15:49;13.80;99.90
9103;DHT22;4587;51.434;6.788;2023-08-07T03:18:16;13.80;99.90
9103;DHT22;4587;51.434;6.788;2023-08-07T03:20:42;13.90;99.90
9103;DHT22;4587;51.434;6.788;2023-08-07T03:23:09;13.90;99.90
9103;DHT22;4587;51.434;6.788;2023-08-07T03:25:34;13.90;99.90
9103;DHT22;4587;51.434;6.788;2023-08-07T03:28:00;13.80;99.90
9103;DHT22;4587;51.434;6.788;2023-08-07T03:30:26;13.80;99.90
9103;DHT22;4587;51.434;6.788;2023-08-07T03:32:51;13.80;99.90
9103;DHT22;4587;51.434;6.788;2023-08-07T03:35:17;13.70;99.90
9103;DHT22;4587;51.434;6.788;2023-08-07T03:37:43;13.80;99.90
9103;DHT22;4587;51.434;6.788;2023-08-07T03:40:09;13.70;99.90
9103;DHT22;4587;51.434;6.788;2023-08-07T03:42:34;13.80;99.90
9103;DHT22;4587;51.434;6.788;2023-08-07T03:45:00;13.80;99.90
9103;DHT22;4587;51.434;6.788;2023-08-07T03:47:25;13.90;99.90
9103;DHT22;4587;51.434;6.788;2023-08-07T03:49:51;13.80;99.90
9103;DHT22;4587;51.434;6.788;2023-08-07T03:52:16;13.90;99.90
9103;DHT22;4587;51.434;6.788;2023-08-07T03:54:43;13.80;99.90
9103;DHT22;4587;51.434;6.788;2023-08-07T03:57:09;13.80;99.90
9103;DHT22;4587;51.434;6.788;2023-08-07T03:59:36;13.90;99.90
9103;DHT22;4587;51.434;6.788;2023-08-07T04:02:01;13.80;99.90
9103;DHT22;4587;51.434;6.788;2023-08-07T04:04:27;13.90;99.90
9103;DHT22;4587;51.434;6.788;2023-08-07T04:06:52;13.90;99.90
9103;DHT22;4587;51.434;6.788;2023-08-07T04:09:18;13.90;99.90
9103;DHT22;4587;51.434;6.788;2023-08-07T04:11:43;13.90;99.90
9103;DHT22;4587;51.434;6.788;2023-08-07T04:14:09;13.80;99.90
9103;DHT22;4587;51.434;6.788;2023-08-07T04:16:35;13.90;99.90
9103;DHT22;4587;51.434;6.788;2023-08-07T04:19:02;13.90;99.90
9103;DHT22;4587;51.434;6.788;2023-08-07T04:21:28;13.90;99.90
9103;DHT22;4587;51.434;6.788;2023-08-07T04:23:53;13.90;99.90
9103;DHT22;4587;51.434;6.788;2023-08-07T04:26:19;13.80;99.90
9103;DHT22;4587;51.434;6.788;2023-08-07T04:28:44;13.80;99.90
9103;DHT22;4587;51.434;6.788;2023-08-07T04:31:10;13.80;99.90
9103;DHT22;4587;51.434;6.788;2023-08-07T04:33:36;13.80;99.90
9103;DHT22;4587;51.434;6.788;2023-08-07T04:36:01;13.80;99.90
9103;DHT22;4587;51.434;6.788;2023-08-07T04:38:27;13.80;99.90
9103;DHT22;4587;51.434;6.788;2023-08-07T04:40:52;13.90;99.90
9103;DHT22;4587;51.434;6.788;2023-08-07T04:43:19;13.90;99.90
9103;DHT22;4587;51.434;6.788;2023-08-07T04:45:45;13.90;99.90
9103;DHT22;4587;51.434;6.788;2023-08-07T04:48:12;13.90;99.90
9103;DHT22;4587;51.434;6.788;2023-08-07T04:50:38;14.00;99.90
9103;DHT22;4587;51.434;6.788;2023-08-07T04:53:07;14.00;99.90
9103;DHT22;4587;51.434;6.788;2023-08-07T04:55:33;14.00;99.90
9103;DHT22;4587;51.434;6.788;2023-08-07T04:57:58;14.00;99.90
9103;DHT22;4587;51.434;6.788;2023-08-07T05:00:25;14.00;99.90
9103;DHT22;4587;51.434;6.788;2023-08-07T05:02:51;14.00;99.90
9103;DHT22;4587;51.434;6.788;2023-08-07T05:05:17;14.00;99.90
9103;DHT22;4587;51.434;6.788;2023-08-07T05:07:47;14.00;99.90
9103;DHT22;4587;51.434;6.788;2023-08-07T05:10:13;13.90;99.90
9103;DHT22;4587;51.434;6.788;2023-08-07T05:12:39;13.90;99.90
9103;DHT22;4587;51.434;6.788;2023-08-07T05:15:04;13.90;99.90
9103;DHT22;4587;51.434;6.788;2023-08-07T05:17:31;13.90;99.90
9103;DHT22;4587;51.434;6.788;2023-08-07T05:19:57;13.90;99.90
9103;DHT22;4587;51.434;6.788;2023-08-07T05:22:22;13.90;99.90
9103;DHT22;4587;51.434;6.788;2023-08-07T05:24:48;13.90;99.90
9103;DHT22;4587;51.434;6.788;2023-08-07T05:27:14;13.90;99.90
9103;DHT22;4587;51.434;6.788;2023-08-07T05:29:40;13.90;99.90
9103;DHT22;4587;51.434;6.788;2023-08-07T05:32:13;13.90;99.90
9103;DHT22;4587;51.434;6.788;2023-08-07T05:34:39;13.90;99.90
9103;DHT22;4587;51.434;6.788;2023-08-07T05:37:05;13.90;99.90
9103;DHT22;4587;51.434;6.788;2023-08-07T05:39:31;13.80;99.90
9103;DHT22;4587;51.434;6.788;2023-08-07T05:41:57;13.90;99.90
9103;DHT22;4587;51.434;6.788;2023-08-07T05:44:26;13.90;99.90
9103;DHT22;4587;51.434;6.788;2023-08-07T05:46:51;13.90;99.90
9103;DHT22;4587;51.434;6.788;2023-08-07T05:49:17;13.90;99.90
9103;DHT22;4587;51.434;6.788;2023-08-07T05:51:43;13.80;99.90
9103;DHT22;4587;51.434;6.788;2023-08-07T05:54:09;13.80;99.90
9103;DHT22;4587;51.434;6.788;2023-08-07T05:56:35;13.80;99.90
9103;DHT22;4587;51.434;6.788;2023-08-07T05:59:01;13.90;99.90
9103;DHT22;4587;51.434;6.788;2023-08-07T06:01:26;13.90;99.90
9103;DHT22;4587;51.434;6.788;2023-08-07T06:03:59;13.90;99.90
9103;DHT22;4587;51.434;6.788;2023-08-07T06:06:25;13.90;99.90
9103;DHT22;4587;51.434;6.788;2023-08-07T06:08:51;14.00;99.90
9103;DHT22;4587;51.434;6.788;2023-08-07T06:11:17;13.90;99.90
9103;DHT22;4587;51.434;6.788;2023-08-07T06:13:43;13.90;99.90
9103;DHT22;4587;51.434;6.788;2023-08-07T06:16:08;13.90;99.90
9103;DHT22;4587;51.434;6.788;2023-08-07T06:18:34;13.90;99.90
9103;DHT22;4587;51.434;6.788;2023-08-07T06:21:00;13.90;99.90
9103;DHT22;4587;51.434;6.788;2023-08-07T06:23:25;13.90;99.90
9103;DHT22;4587;51.434;6.788;2023-08-07T06:25:51;13.90;99.90
9103;DHT22;4587;51.434;6.788;2023-08-07T06:28:17;13.90;99.90
9103;DHT22;4587;51.434;6.788;2023-08-07T06:30:42;14.00;99.90
9103;DHT22;4587;51.434;6.788;2023-08-07T06:33:08;14.10;99.90
9103;DHT22;4587;51.434;6.788;2023-08-07T06:35:39;14.10;99.90
9103;DHT22;4587;51.434;6.788;2023-08-07T06:38:06;14.10;99.90
9103;DHT22;4587;51.434;6.788;2023-08-07T06:40:31;14.10;99.90
9103;DHT22;4587;51.434;6.788;2023-08-07T06:42:57;14.10;99.90
9103;DHT22;4587;51.434;6.788;2023-08-07T06:45:22;14.20;99.90
9103;DHT22;4587;51.434;6.788;2023-08-07T06:47:48;14.10;99.90
9103;DHT22;4587;51.434;6.788;2023-08-07T06:50:14;14.20;99.90
9103;DHT22;4587;51.434;6.788;2023-08-07T06:52:40;14.20;99.90
9103;DHT22;4587;51.434;6.788;2023-08-07T06:55:06;14.10;99.90
9103;DHT22;4587;51.434;6.788;2023-08-07T06:57:32;14.20;99.90
9103;DHT22;4587;51.434;6.788;2023-08-07T06:59:57;14.20;99.90
9103;DHT22;4587;51.434;6.788;2023-08-07T07:02:23;14.10;99.90
9103;DHT22;4587;51.434;6.788;2023-08-07T07:04:48;14.20;99.90
9103;DHT22;4587;51.434;6.788;2023-08-07T07:07:14;14.20;99.90
9103;DHT22;4587;51.434;6.788;2023-08-07T07:09:39;14.30;99.90
9103;DHT22;4587;51.434;6.788;2023-08-07T07:12:05;14.30;99.90
9103;DHT22;4587;51.434;6.788;2023-08-07T07:14:32;14.20;99.90
9103;DHT22;4587;51.434;6.788;2023-08-07T07:16:59;14.20;99.90
9103;DHT22;4587;51.434;6.788;2023-08-07T07:19:25;14.30;99.90
9103;DHT22;4587;51.434;6.788;2023-08-07T07:21:50;14.20;99.90
9103;DHT22;4587;51.434;6.788;2023-08-07T07:24:16;14.20;99.90
9103;DHT22;4587;51.434;6.788;2023-08-07T07:26:41;14.20;99.90
9103;DHT22;4587;51.434;6.788;2023-08-07T07:29:07;14.20;99.90
9103;DHT22;4587;51.434;6.788;2023-08-07T07:31:32;14.30;99.90
9103;DHT22;4587;51.434;6.788;2023-08-07T07:33:58;14.30;99.90
9103;DHT22;4587;51.434;6.788;2023-08-07T07:36:24;14.30;99.90
9103;DHT22;4587;51.434;6.788;2023-08-07T07:38:49;14.30;99.90
9103;DHT22;4587;51.434;6.788;2023-08-07T07:41:15;14.30;99.90
9103;DHT22;4587;51.434;6.788;2023-08-07T07:43:41;14.30;99.90
9103;DHT22;4587;51.434;6.788;2023-08-07T07:46:07;14.30;99.90
9103;DHT22;4587;51.434;6.788;2023-08-07T07:48:33;14.30;99.90
9103;DHT22;4587;51.434;6.788;2023-08-07T07:51:00;14.30;99.90
9103;DHT22;4587;51.434;6.788;2023-08-07T07:53:26;14.30;99.90
9103;DHT22;4587;51.434;6.788;2023-08-07T07:55:52;14.40;99.90
9103;DHT22;4587;51.434;6.788;2023-08-07T07:58:18;14.40;99.90
9103;DHT22;4587;51.434;6.788;2023-08-07T08:00:43;14.40;99.90
9103;DHT22;4587;51.434;6.788;2023-08-07T08:03:09;14.50;99.90
9103;DHT22;4587;51.434;6.788;2023-08-07T08:05:34;14.50;99.90
9103;DHT22;4587;51.434;6.788;2023-08-07T08:08:01;14.60;99.90
9103;DHT22;4587;51.434;6.788;2023-08-07T08:10:27;14.60;99.90
9103;DHT22;4587;51.434;6.788;2023-08-07T08:13:23;14.70;99.90
9103;DHT22;4587;51.434;6.788;2023-08-07T08:15:50;14.80;99.90
9103;DHT22;4587;51.434;6.788;2023-08-07T08:18:16;14.80;99.90
9103;DHT22;4587;51.434;6.788;2023-08-07T08:20:42;14.80;99.90
9103;DHT22;4587;51.434;6.788;2023-08-07T08:23:07;14.90;99.90
9103;DHT22;4587;51.434;6.788;2023-08-07T08:25:33;14.90;99.90
9103;DHT22;4587;51.434;6.788;2023-08-07T08:27:59;15.00;99.90
9103;DHT22;4587;51.434;6.788;2023-08-07T08:30:25;15.00;99.90
9103;DHT22;4587;51.434;6.788;2023-08-07T08:32:51;15.10;99.90
9103;DHT22;4587;51.434;6.788;2023-08-07T08:35:17;15.20;99.90
9103;DHT22;4587;51.434;6.788;2023-08-07T08:37:42;15.20;99.90
9103;DHT22;4587;51.434;6.788;2023-08-07T08:40:09;15.30;99.90
9103;DHT22;4587;51.434;6.788;2023-08-07T08:42:39;15.50;99.90
9103;DHT22;4587;51.434;6.788;2023-08-07T08:45:08;15.70;99.90
9103;DHT22;4587;51.434;6.788;2023-08-07T08:47:36;15.80;99.90
9103;DHT22;4587;51.434;6.788;2023-08-07T08:50:06;15.90;99.90
9103;DHT22;4587;51.434;6.788;2023-08-07T08:52:34;16.10;99.90
9103;DHT22;4587;51.434;6.788;2023-08-07T08:55:01;16.20;99.90
9103;DHT22;4587;51.434;6.788;2023-08-07T08:57:27;16.30;99.90
9103;DHT22;4587;51.434;6.788;2023-08-07T08:59:53;16.40;99.90
9103;DHT22;4587;51.434;6.788;2023-08-07T09:02:19;16.60;99.90
9103;DHT22;4587;51.434;6.788;2023-08-07T09:04:45;16.80;99.90
9103;DHT22;4587;51.434;6.788;2023-08-07T09:07:15;16.90;99.90
9103;DHT22;4587;51.434;6.788;2023-08-07T09:09:42;17.10;99.90
9103;DHT22;4587;51.434;6.788;2023-08-07T09:12:19;17.20;99.90
9103;DHT22;4587;51.434;6.788;2023-08-07T09:14:53;17.20;99.90
9103;DHT22;4587;51.434;6.788;2023-08-07T09:17:26;17.30;99.90
9103;DHT22;4587;51.434;6.788;2023-08-07T09:19:53;17.20;99.90
9103;DHT22;4587;51.434;6.788;2023-08-07T09:22:19;17.00;99.90
9103;DHT22;4587;51.434;6.788;2023-08-07T09:24:45;16.90;99.90
9103;DHT22;4587;51.434;6.788;2023-08-07T09:27:11;16.60;99.90
9103;DHT22;4587;51.434;6.788;2023-08-07T09:29:39;16.50;99.90
9103;DHT22;4587;51.434;6.788;2023-08-07T09:32:22;16.30;99.90
9103;DHT22;4587;51.434;6.788;2023-08-07T09:34:50;16.20;99.90
9103;DHT22;4587;51.434;6.788;2023-08-07T09:37:16;16.20;99.90
9103;DHT22;4587;51.434;6.788;2023-08-07T09:39:42;16.20;99.90
9103;DHT22;4587;51.434;6.788;2023-08-07T09:42:14;16.30;99.90
9103;DHT22;4587;51.434;6.788;2023-08-07T09:44:43;16.60;99.90
9103;DHT22;4587;51.434;6.788;2023-08-07T09:47:17;16.70;99.90
9103;DHT22;4587;51.434;6.788;2023-08-07T09:49:44;16.90;99.90
9103;DHT22;4587;51.434;6.788;2023-08-07T09:52:12;16.90;99.90
9103;DHT22;4587;51.434;6.788;2023-08-07T09:54:43;17.00;99.90
9103;DHT22;4587;51.434;6.788;2023-08-07T09:57:09;17.10;99.90
9103;DHT22;4587;51.434;6.788;2023-08-07T09:59:35;17.20;99.90
9103;DHT22;4587;51.434;6.788;2023-08-07T10:02:02;17.50;99.90
9103;DHT22;4587;51.434;6.788;2023-08-07T10:04:28;17.70;99.90
9103;DHT22;4587;51.434;6.788;2023-08-07T10:06:54;17.90;99.90
9103;DHT22;4587;51.434;6.788;2023-08-07T10:09:21;18.00;99.90
9103;DHT22;4587;51.434;6.788;2023-08-07T10:11:47;18.10;99.90
9103;DHT22;4587;51.434;6.788;2023-08-07T10:14:14;18.20;99.90
9103;DHT22;4587;51.434;6.788;2023-08-07T10:16:40;18.30;99.90
9103;DHT22;4587;51.434;6.788;2023-08-07T10:19:07;18.50;99.90
9103;DHT22;4587;51.434;6.788;2023-08-07T10:21:36;18.60;99.90
9103;DHT22;4587;51.434;6.788;2023-08-07T10:24:06;18.60;99.90
9103;DHT22;4587;51.434;6.788;2023-08-07T10:26:35;18.60;99.90
9103;DHT22;4587;51.434;6.788;2023-08-07T10:29:05;18.60;99.90
9103;DHT22;4587;51.434;6.788;2023-08-07T10:31:33;18.50;99.90
9103;DHT22;4587;51.434;6.788;2023-08-07T10:34:01;18.30;99.90
9103;DHT22;4587;51.434;6.788;2023-08-07T10:36:32;18.20;99.90
9103;DHT22;4587;51.434;6.788;2023-08-07T10:39:10;18.10;99.90
9103;DHT22;4587;51.434;6.788;2023-08-07T10:41:46;18.00;99.90
9103;DHT22;4587;51.434;6.788;2023-08-07T10:46:52;17.80;99.90
9103;DHT22;4587;51.434;6.788;2023-08-07T10:52:08;17.30;99.90
9103;DHT22;4587;51.434;6.788;2023-08-07T10:54:56;17.10;99.90
9103;DHT22;4587;51.434;6.788;2023-08-07T10:57:21;16.90;99.90
9103;DHT22;4587;51.434;6.788;2023-08-07T11:00:02;16.80;99.90
9103;DHT22;4587;51.434;6.788;2023-08-07T11:02:31;16.80;99.90
9103;DHT22;4587;51.434;6.788;2023-08-07T11:04:59;16.90;99.90
9103;DHT22;4587;51.434;6.788;2023-08-07T11:07:25;17.10;99.90
9103;DHT22;4587;51.434;6.788;2023-08-07T11:09:52;17.40;99.90
9103;DHT22;4587;51.434;6.788;2023-08-07T11:12:18;17.70;99.90
9103;DHT22;4587;51.434;6.788;2023-08-07T11:14:44;17.80;99.90
9103;DHT22;4587;51.434;6.788;2023-08-07T11:17:10;17.90;99.90
9103;DHT22;4587;51.434;6.788;2023-08-07T11:19:35;18.10;99.90
9103;DHT22;4587;51.434;6.788;2023-08-07T11:22:01;18.30;99.90
9103;DHT22;4587;51.434;6.788;2023-08-07T11:24:27;18.40;99.90
9103;DHT22;4587;51.434;6.788;2023-08-07T11:26:53;18.30;99.90
9103;DHT22;4587;51.434;6.788;2023-08-07T11:29:21;18.10;99.90
9103;DHT22;4587;51.434;6.788;2023-08-07T11:31:50;18.00;99.90
9103;DHT22;4587;51.434;6.788;2023-08-07T11:34:17;17.80;99.90
9103;DHT22;4587;51.434;6.788;2023-08-07T11:36:44;17.70;99.90
9103;DHT22;4587;51.434;6.788;2023-08-07T11:39:10;17.70;99.90
9103;DHT22;4587;51.434;6.788;2023-08-07T11:41:35;17.70;99.90
9103;DHT22;4587;51.434;6.788;2023-08-07T11:44:01;17.90;99.90
9103;DHT22;4587;51.434;6.788;2023-08-07T11:46:27;18.10;99.90
9103;DHT22;4587;51.434;6.788;2023-08-07T11:48:52;18.40;99.90
9103;DHT22;4587;51.434;6.788;2023-08-07T11:51:20;18.60;99.90
9103;DHT22;4587;51.434;6.788;2023-08-07T11:53:45;18.70;99.90
9103;DHT22;4587;51.434;6.788;2023-08-07T11:56:12;18.70;99.90
9103;DHT22;4587;51.434;6.788;2023-08-07T11:58:46;18.60;99.90
9103;DHT22;4587;51.434;6.788;2023-08-07T12:01:16;18.30;99.90
9103;DHT22;4587;51.434;6.788;2023-08-07T12:06:16;18.30;99.90
9103;DHT22;4587;51.434;6.788;2023-08-07T12:08:42;18.30;99.90
9103;DHT22;4587;51.434;6.788;2023-08-07T12:11:09;18.40;99.90
9103;DHT22;4587;51.434;6.788;2023-08-07T12:13:43;18.60;99.90
9103;DHT22;4587;51.434;6.788;2023-08-07T12:16:11;18.80;99.90
9103;DHT22;4587;51.434;6.788;2023-08-07T12:18:43;19.10;99.90
9103;DHT22;4587;51.434;6.788;2023-08-07T12:21:10;19.30;99.90
9103;DHT22;4587;51.434;6.788;2023-08-07T12:23:36;19.50;99.90
9103;DHT22;4587;51.434;6.788;2023-08-07T12:26:03;19.80;99.90
9103;DHT22;4587;51.434;6.788;2023-08-07T12:28:31;20.00;99.90
9103;DHT22;4587;51.434;6.788;2023-08-07T12:30:57;20.00;99.90
9103;DHT22;4587;51.434;6.788;2023-08-07T12:33:23;20.10;99.90
9103;DHT22;4587;51.434;6.788;2023-08-07T12:35:48;20.20;99.90
9103;DHT22;4587;51.434;6.788;2023-08-07T12:38:14;20.10;99.90
9103;DHT22;4587;51.434;6.788;2023-08-07T12:40:40;20.20;99.90
9103;DHT22;4587;51.434;6.788;2023-08-07T12:43:06;20.20;99.90
9103;DHT22;4587;51.434;6.788;2023-08-07T12:45:32;20.20;99.90
9103;DHT22;4587;51.434;6.788;2023-08-07T12:47:59;20.20;99.90
9103;DHT22;4587;51.434;6.788;2023-08-07T12:50:25;20.10;99.90
9103;DHT22;4587;51.434;6.788;2023-08-07T12:52:50;19.90;99.90
9103;DHT22;4587;51.434;6.788;2023-08-07T12:55:16;19.70;99.90
9103;DHT22;4587;51.434;6.788;2023-08-07T12:57:43;19.60;99.90
9103;DHT22;4587;51.434;6.788;2023-08-07T13:00:12;19.60;99.90
9103;DHT22;4587;51.434;6.788;2023-08-07T13:02:47;19.50;99.90
9103;DHT22;4587;51.434;6.788;2023-08-07T13:05:13;19.50;99.90
9103;DHT22;4587;51.434;6.788;2023-08-07T13:07:40;19.70;99.90
9103;DHT22;4587;51.434;6.788;2023-08-07T13:10:08;19.80;99.90
9103;DHT22;4587;51.434;6.788;2023-08-07T13:12:41;20.00;99.90
9103;DHT22;4587;51.434;6.788;2023-08-07T13:15:10;20.00;99.90
9103;DHT22;4587;51.434;6.788;2023-08-07T13:17:38;20.00;99.90
9103;DHT22;4587;51.434;6.788;2023-08-07T13:20:04;20.00;99.90
9103;DHT22;4587;51.434;6.788;2023-08-07T13:22:40;19.80;99.90
9103;DHT22;4587;51.434;6.788;2023-08-07T13:25:07;19.80;99.90
9103;DHT22;4587;51.434;6.788;2023-08-07T13:27:34;19.70;99.90
9103;DHT22;4587;51.434;6.788;2023-08-07T13:29:59;19.60;99.90
9103;DHT22;4587;51.434;6.788;2023-08-07T13:32:25;19.70;99.90
9103;DHT22;4587;51.434;6.788;2023-08-07T13:34:51;19.80;99.90
9103;DHT22;4587;51.434;6.788;2023-08-07T13:37:17;20.00;99.90
9103;DHT22;4587;51.434;6.788;2023-08-07T13:39:43;20.00;99.90
9103;DHT22;4587;51.434;6.788;2023-08-07T13:42:08;20.10;99.90
9103;DHT22;4587;51.434;6.788;2023-08-07T13:44:36;20.30;99.90
9103;DHT22;4587;51.434;6.788;2023-08-07T13:47:02;20.30;99.90
9103;DHT22;4587;51.434;6.788;2023-08-07T13:49:27;20.30;99.90
9103;DHT22;4587;51.434;6.788;2023-08-07T13:51:54;20.50;99.90
9103;DHT22;4587;51.434;6.788;2023-08-07T13:54:19;20.70;99.90
9103;DHT22;4587;51.434;6.788;2023-08-07T13:56:45;21.00;99.90
9103;DHT22;4587;51.434;6.788;2023-08-07T13:59:10;21.20;99.90
9103;DHT22;4587;51.434;6.788;2023-08-07T14:01:36;21.20;99.90
9103;DHT22;4587;51.434;6.788;2023-08-07T14:04:02;21.10;99.90
9103;DHT22;4587;51.434;6.788;2023-08-07T14:06:28;21.20;99.90
9103;DHT22;4587;51.434;6.788;2023-08-07T14:08:54;21.10;99.90
9103;DHT22;4587;51.434;6.788;2023-08-07T14:11:20;21.00;99.90
9103;DHT22;4587;51.434;6.788;2023-08-07T14:13:46;21.10;99.90
9103;DHT22;4587;51.434;6.788;2023-08-07T14:16:12;21.10;99.90
9103;DHT22;4587;51.434;6.788;2023-08-07T14:18:37;21.20;99.90
9103;DHT22;4587;51.434;6.788;2023-08-07T14:21:03;21.20;99.90
9103;DHT22;4587;51.434;6.788;2023-08-07T14:23:29;21.10;99.90
9103;DHT22;4587;51.434;6.788;2023-08-07T14:25:55;21.00;99.90
9103;DHT22;4587;51.434;6.788;2023-08-07T14:28:21;20.80;99.90
9103;DHT22;4587;51.434;6.788;2023-08-07T14:30:47;20.70;99.90
9103;DHT22;4587;51.434;6.788;2023-08-07T14:33:13;20.50;99.90
9103;DHT22;4587;51.434;6.788;2023-08-07T14:35:39;20.40;99.90
9103;DHT22;4587;51.434;6.788;2023-08-07T14:38:04;20.40;99.90
9103;DHT22;4587;51.434;6.788;2023-08-07T14:40:30;20.50;99.90
9103;DHT22;4587;51.434;6.788;2023-08-07T14:42:55;20.60;99.90
9103;DHT22;4587;51.434;6.788;2023-08-07T14:45:21;20.60;99.90
9103;DHT22;4587;51.434;6.788;2023-08-07T14:47:49;20.50;99.90
9103;DHT22;4587;51.434;6.788;2023-08-07T14:50:15;20.40;99.90
9103;DHT22;4587;51.434;6.788;2023-08-07T14:52:43;20.30;99.90
9103;DHT22;4587;51.434;6.788;2023-08-07T14:55:09;20.30;99.90
9103;DHT22;4587;51.434;6.788;2023-08-07T14:57:34;20.20;99.90
9103;DHT22;4587;51.434;6.788;2023-08-07T15:00:00;20.10;99.90
9103;DHT22;4587;51.434;6.788;2023-08-07T15:02:26;20.10;99.90
9103;DHT22;4587;51.434;6.788;2023-08-07T15:04:51;20.00;99.90
9103;DHT22;4587;51.434;6.788;2023-08-07T15:07:17;20.00;99.90
9103;DHT22;4587;51.434;6.788;2023-08-07T15:09:43;20.00;99.90
9103;DHT22;4587;51.434;6.788;2023-08-07T15:12:09;20.10;99.90
9103;DHT22;4587;51.434;6.788;2023-08-07T15:14:34;20.10;99.90
9103;DHT22;4587;51.434;6.788;2023-08-07T15:17:00;20.30;99.90
9103;DHT22;4587;51.434;6.788;2023-08-07T15:19:26;20.40;99.90
9103;DHT22;4587;51.434;6.788;2023-08-07T15:21:51;20.50;99.90
9103;DHT22;4587;51.434;6.788;2023-08-07T15:24:17;20.40;99.90
9103;DHT22;4587;51.434;6.788;2023-08-07T15:26:42;20.40;99.90
9103;DHT22;4587;51.434;6.788;2023-08-07T15:29:08;20.30;99.90
9103;DHT22;4587;51.434;6.788;2023-08-07T15:31:34;20.20;99.90
9103;DHT22;4587;51.434;6.788;2023-08-07T15:33:59;20.00;99.90
9103;DHT22;4587;51.434;6.788;2023-08-07T15:36:25;19.90;99.90
9103;DHT22;4587;51.434;6.788;2023-08-07T15:38:50;19.80;99.90
9103;DHT22;4587;51.434;6.788;2023-08-07T15:41:16;19.70;99.90
9103;DHT22;4587;51.434;6.788;2023-08-07T15:43:42;19.70;99.90
9103;DHT22;4587;51.434;6.788;2023-08-07T15:46:08;19.80;99.90
9103;DHT22;4587;51.434;6.788;2023-08-07T15:48:33;19.80;99.90
9103;DHT22;4587;51.434;6.788;2023-08-07T15:50:59;19.80;99.90
9103;DHT22;4587;51.434;6.788;2023-08-07T15:53:24;19.80;99.90
9103;DHT22;4587;51.434;6.788;2023-08-07T15:55:50;19.70;99.90
9103;DHT22;4587;51.434;6.788;2023-08-07T15:58:15;19.70;99.90
9103;DHT22;4587;51.434;6.788;2023-08-07T16:00:43;19.70;99.90
9103;DHT22;4587;51.434;6.788;2023-08-07T16:03:09;19.60;99.90
9103;DHT22;4587;51.434;6.788;2023-08-07T16:05:37;19.60;99.90
9103;DHT22;4587;51.434;6.788;2023-08-07T16:08:04;19.70;99.90
9103;DHT22;4587;51.434;6.788;2023-08-07T16:10:30;19.80;99.90